sensor_id;sensor_type;location;lat;lon;timestamp;P1;durP1;ratioP1;P2;durP2;ratioP2
70985;SDS011;58645;43.068;25.610;2023-08-08T00:00:46;2.05;;;1.17;;
70985;SDS011;58645;43.068;25.610;2023-08-08T00:03:12;1.60;;;0.80;;
70985;SDS011;58645;43.068;25.610;2023-08-08T00:05:38;1.40;;;0.77;;
70985;SDS011;58645;43.068;25.610;2023-08-08T00:08:04;1.52;;;0.90;;
70985;SDS011;58645;43.068;25.610;2023-08-08T00:10:30;2.13;;;1.23;;
70985;SDS011;58645;43.068;25.610;2023-08-08T00:12:56;1.42;;;0.88;;
70985;SDS011;58645;43.068;25.610;2023-08-08T00:15:22;2.03;;;1.05;;
70985;SDS011;58645;43.068;25.610;2023-08-08T00:17:47;1.88;;;1.10;;
70985;SDS011;58645;43.068;25.610;2023-08-08T00:20:13;2.05;;;1.13;;
70985;SDS011;58645;43.068;25.610;2023-08-08T00:22:39;1.60;;;0.88;;
70985;SDS011;58645;43.068;25.610;2023-08-08T00:25:05;3.72;;;1.45;;
70985;SDS011;58645;43.068;25.610;2023-08-08T00:27:31;2.45;;;1.60;;
70985;SDS011;58645;43.068;25.610;2023-08-08T00:29:57;3.05;;;1.40;;
70985;SDS011;58645;43.068;25.610;2023-08-08T00:32:22;2.30;;;0.93;;
70985;SDS011;58645;43.068;25.610;2023-08-08T00:34:48;1.60;;;1.13;;
70985;SDS011;58645;43.068;25.610;2023-08-08T00:37:14;1.75;;;0.98;;
70985;SDS011;58645;43.068;25.610;2023-08-08T00:39:39;2.40;;;1.27;;
70985;SDS011;58645;43.068;25.610;2023-08-08T00:42:07;3.22;;;1.23;;
70985;SDS011;58645;43.068;25.610;2023-08-08T00:44:33;2.67;;;1.30;;
70985;SDS011;58645;43.068;25.610;2023-08-08T00:46:58;2.95;;;1.40;;
70985;SDS011;58645;43.068;25.610;2023-08-08T00:49:24;2.70;;;1.25;;
70985;SDS011;58645;43.068;25.610;2023-08-08T00:51:50;2.55;;;1.25;;
70985;SDS011;58645;43.068;25.610;2023-08-08T00:54:16;2.58;;;1.30;;
70985;SDS011;58645;43.068;25.610;2023-08-08T00:56:42;2.40;;;1.20;;
70985;SDS011;58645;43.068;25.610;2023-08-08T00:59:08;1.83;;;1.15;;
70985;SDS011;58645;43.068;25.610;2023-08-08T01:01:35;3.65;;;1.52;;
70985;SDS011;58645;43.068;25.610;2023-08-08T01:04:00;3.58;;;1.38;;
70985;SDS011;58645;43.068;25.610;2023-08-08T01:06:42;3.05;;;1.27;;
70985;SDS011;58645;43.068;25.610;2023-08-08T01:09:30;1.98;;;1.23;;
70985;SDS011;58645;43.068;25.610;2023-08-08T01:12:05;1.85;;;1.15;;
70985;SDS011;58645;43.068;25.610;2023-08-08T01:14:35;1.92;;;1.05;;
70985;SDS011;58645;43.068;25.610;2023-08-08T01:17:03;1.92;;;1.23;;
70985;SDS011;58645;43.068;25.610;2023-08-08T01:19:31;1.90;;;1.42;;
70985;SDS011;58645;43.068;25.610;2023-08-08T01:22:04;3.83;;;1.50;;
70985;SDS011;58645;43.068;25.610;2023-08-08T01:24:32;1.38;;;0.93;;
70985;SDS011;58645;43.068;25.610;2023-08-08T01:27:02;2.45;;;1.25;;
70985;SDS011;58645;43.068;25.610;2023-08-08T01:29:29;2.30;;;1.15;;
70985;SDS011;58645;43.068;25.610;2023-08-08T01:31:55;2.67;;;1.48;;
70985;SDS011;58645;43.068;25.610;2023-08-08T01:34:21;2.85;;;1.25;;
70985;SDS011;58645;43.068;25.610;2023-08-08T01:37:02;2.17;;;1.15;;
70985;SDS011;58645;43.068;25.610;2023-08-08T01:39:34;2.25;;;1.40;;
70985;SDS011;58645;43.068;25.610;2023-08-08T01:42:02;1.60;;;1.08;;
70985;SDS011;58645;43.068;25.610;2023-08-08T01:44:29;3.08;;;1.13;;
70985;SDS011;58645;43.068;25.610;2023-08-08T01:46:56;1.88;;;1.20;;
70985;SDS011;58645;43.068;25.610;2023-08-08T01:49:21;3.05;;;1.25;;
70985;SDS011;58645;43.068;25.610;2023-08-08T01:51:47;2.05;;;1.02;;
70985;SDS011;58645;43.068;25.610;2023-08-08T01:54:13;1.90;;;0.95;;
70985;SDS011;58645;43.068;25.610;2023-08-08T01:56:39;2.97;;;1.23;;
70985;SDS011;58645;43.068;25.610;2023-08-08T01:59:05;2.20;;;1.48;;
70985;SDS011;58645;43.068;25.610;2023-08-08T02:01:30;3.17;;;1.48;;
70985;SDS011;58645;43.068;25.610;2023-08-08T02:03:56;3.10;;;1.70;;
70985;SDS011;58645;43.068;25.610;2023-08-08T02:06:22;2.15;;;1.33;;
70985;SDS011;58645;43.068;25.610;2023-08-08T02:08:47;3.40;;;1.52;;
70985;SDS011;58645;43.068;25.610;2023-08-08T02:11:13;2.45;;;1.45;;
70985;SDS011;58645;43.068;25.610;2023-08-08T02:13:39;3.90;;;1.60;;
70985;SDS011;58645;43.068;25.610;2023-08-08T02:16:04;2.20;;;1.42;;
70985;SDS011;58645;43.068;25.610;2023-08-08T02:18:30;3.17;;;2.00;;
70985;SDS011;58645;43.068;25.610;2023-08-08T02:20:56;2.25;;;1.42;;
70985;SDS011;58645;43.068;25.610;2023-08-08T02:23:21;3.15;;;1.75;;
70985;SDS011;58645;43.068;25.610;2023-08-08T02:25:47;2.50;;;1.73;;
70985;SDS011;58645;43.068;25.610;2023-08-08T02:28:13;2.13;;;1.63;;
70985;SDS011;58645;43.068;25.610;2023-08-08T02:30:38;2.40;;;1.77;;
70985;SDS011;58645;43.068;25.610;2023-08-08T02:33:04;4.28;;;1.50;;
70985;SDS011;58645;43.068;25.610;2023-08-08T02:35:30;2.88;;;1.58;;
70985;SDS011;58645;43.068;25.610;2023-08-08T02:37:56;2.70;;;1.52;;
70985;SDS011;58645;43.068;25.610;2023-08-08T02:40:21;3.72;;;1.65;;
70985;SDS011;58645;43.068;25.610;2023-08-08T02:42:51;3.30;;;1.73;;
70985;SDS011;58645;43.068;25.610;2023-08-08T02:45:17;5.50;;;1.88;;
70985;SDS011;58645;43.068;25.610;2023-08-08T02:47:43;3.75;;;1.92;;
70985;SDS011;58645;43.068;25.610;2023-08-08T02:50:09;3.20;;;1.73;;
70985;SDS011;58645;43.068;25.610;2023-08-08T02:52:34;3.15;;;2.25;;
70985;SDS011;58645;43.068;25.610;2023-08-08T02:55:00;8.40;;;2.22;;
70985;SDS011;58645;43.068;25.610;2023-08-08T02:57:27;3.92;;;1.88;;
70985;SDS011;58645;43.068;25.610;2023-08-08T02:59:53;3.65;;;1.85;;
70985;SDS011;58645;43.068;25.610;2023-08-08T03:02:19;4.32;;;2.05;;
70985;SDS011;58645;43.068;25.610;2023-08-08T03:04:44;3.22;;;1.92;;
70985;SDS011;58645;43.068;25.610;2023-08-08T03:07:10;3.22;;;2.00;;
70985;SDS011;58645;43.068;25.610;2023-08-08T03:09:36;3.92;;;2.13;;
70985;SDS011;58645;43.068;25.610;2023-08-08T03:12:02;3.28;;;1.92;;
70985;SDS011;58645;43.068;25.610;2023-08-08T03:14:27;4.07;;;2.10;;
70985;SDS011;58645;43.068;25.610;2023-08-08T03:16:53;4.60;;;2.03;;
70985;SDS011;58645;43.068;25.610;2023-08-08T03:19:19;3.80;;;2.03;;
70985;SDS011;58645;43.068;25.610;2023-08-08T03:21:45;3.38;;;2.13;;
70985;SDS011;58645;43.068;25.610;2023-08-08T03:24:11;2.97;;;2.00;;
70985;SDS011;58645;43.068;25.610;2023-08-08T03:26:37;2.85;;;1.88;;
70985;SDS011;58645;43.068;25.610;2023-08-08T03:29:02;3.10;;;2.15;;
70985;SDS011;58645;43.068;25.610;2023-08-08T03:31:28;3.30;;;1.95;;
70985;SDS011;58645;43.068;25.610;2023-08-08T03:33:54;3.42;;;2.03;;
70985;SDS011;58645;43.068;25.610;2023-08-08T03:36:20;4.20;;;2.35;;
70985;SDS011;58645;43.068;25.610;2023-08-08T03:38:45;3.28;;;2.08;;
70985;SDS011;58645;43.068;25.610;2023-08-08T03:41:11;3.22;;;1.88;;
70985;SDS011;58645;43.068;25.610;2023-08-08T03:43:38;3.92;;;2.08;;
70985;SDS011;58645;43.068;25.610;2023-08-08T03:48:30;4.15;;;1.90;;
70985;SDS011;58645;43.068;25.610;2023-08-08T03:50:56;3.78;;;2.00;;
70985;SDS011;58645;43.068;25.610;2023-08-08T03:53:23;4.30;;;2.45;;
70985;SDS011;58645;43.068;25.610;2023-08-08T03:55:48;3.67;;;1.90;;
70985;SDS011;58645;43.068;25.610;2023-08-08T03:58:14;3.78;;;2.40;;
70985;SDS011;58645;43.068;25.610;2023-08-08T04:00:40;4.25;;;2.30;;
70985;SDS011;58645;43.068;25.610;2023-08-08T04:03:13;2.70;;;1.98;;
70985;SDS011;58645;43.068;25.610;2023-08-08T04:05:48;3.67;;;2.35;;
70985;SDS011;58645;43.068;25.610;2023-08-08T04:08:14;3.50;;;2.25;;
70985;SDS011;58645;43.068;25.610;2023-08-08T04:10:41;3.50;;;2.28;;
70985;SDS011;58645;43.068;25.610;2023-08-08T04:15:32;3.47;;;2.28;;
70985;SDS011;58645;43.068;25.610;2023-08-08T04:17:58;3.55;;;2.05;;
70985;SDS011;58645;43.068;25.610;2023-08-08T04:20:24;3.53;;;2.25;;
70985;SDS011;58645;43.068;25.610;2023-08-08T04:22:50;4.50;;;2.08;;
70985;SDS011;58645;43.068;25.610;2023-08-08T04:25:15;4.30;;;1.88;;
70985;SDS011;58645;43.068;25.610;2023-08-08T04:27:41;3.38;;;2.42;;
70985;SDS011;58645;43.068;25.610;2023-08-08T04:30:07;3.88;;;1.80;;
70985;SDS011;58645;43.068;25.610;2023-08-08T04:32:33;3.78;;;1.80;;
70985;SDS011;58645;43.068;25.610;2023-08-08T04:34:59;4.28;;;1.73;;
70985;SDS011;58645;43.068;25.610;2023-08-08T04:37:25;6.10;;;2.33;;
70985;SDS011;58645;43.068;25.610;2023-08-08T04:39:51;4.00;;;2.20;;
70985;SDS011;58645;43.068;25.610;2023-08-08T04:42:16;3.58;;;2.10;;
70985;SDS011;58645;43.068;25.610;2023-08-08T04:44:42;4.63;;;2.65;;
70985;SDS011;58645;43.068;25.610;2023-08-08T04:47:08;3.38;;;2.20;;
70985;SDS011;58645;43.068;25.610;2023-08-08T04:49:33;3.95;;;2.05;;
70985;SDS011;58645;43.068;25.610;2023-08-08T04:51:59;3.90;;;2.33;;
70985;SDS011;58645;43.068;25.610;2023-08-08T04:54:25;2.95;;;1.92;;
70985;SDS011;58645;43.068;25.610;2023-08-08T04:56:50;4.53;;;2.03;;
70985;SDS011;58645;43.068;25.610;2023-08-08T04:59:16;3.15;;;2.53;;
70985;SDS011;58645;43.068;25.610;2023-08-08T05:01:42;4.43;;;2.33;;
70985;SDS011;58645;43.068;25.610;2023-08-08T05:04:08;3.03;;;2.10;;
70985;SDS011;58645;43.068;25.610;2023-08-08T05:06:34;6.93;;;2.50;;
70985;SDS011;58645;43.068;25.610;2023-08-08T05:09:00;3.40;;;2.17;;
70985;SDS011;58645;43.068;25.610;2023-08-08T05:11:25;3.10;;;1.83;;
70985;SDS011;58645;43.068;25.610;2023-08-08T05:13:51;4.30;;;2.03;;
70985;SDS011;58645;43.068;25.610;2023-08-08T05:16:17;3.05;;;2.13;;
70985;SDS011;58645;43.068;25.610;2023-08-08T05:18:43;3.50;;;2.17;;
70985;SDS011;58645;43.068;25.610;2023-08-08T05:21:10;3.25;;;2.20;;
70985;SDS011;58645;43.068;25.610;2023-08-08T05:23:36;4.50;;;2.40;;
70985;SDS011;58645;43.068;25.610;2023-08-08T05:26:02;3.95;;;2.15;;
70985;SDS011;58645;43.068;25.610;2023-08-08T05:30:54;3.53;;;1.98;;
70985;SDS011;58645;43.068;25.610;2023-08-08T05:33:21;3.50;;;2.33;;
70985;SDS011;58645;43.068;25.610;2023-08-08T05:35:47;3.53;;;2.30;;
70985;SDS011;58645;43.068;25.610;2023-08-08T05:38:13;3.80;;;2.50;;
70985;SDS011;58645;43.068;25.610;2023-08-08T05:40:38;4.68;;;2.65;;
70985;SDS011;58645;43.068;25.610;2023-08-08T05:43:04;3.58;;;2.38;;
70985;SDS011;58645;43.068;25.610;2023-08-08T05:45:30;6.88;;;3.00;;
70985;SDS011;58645;43.068;25.610;2023-08-08T05:47:57;5.45;;;3.22;;
70985;SDS011;58645;43.068;25.610;2023-08-08T05:50:24;5.18;;;2.72;;
70985;SDS011;58645;43.068;25.610;2023-08-08T05:52:50;4.72;;;2.65;;
70985;SDS011;58645;43.068;25.610;2023-08-08T05:55:16;4.43;;;2.65;;
70985;SDS011;58645;43.068;25.610;2023-08-08T05:57:42;4.13;;;2.50;;
70985;SDS011;58645;43.068;25.610;2023-08-08T06:00:08;6.00;;;2.92;;
70985;SDS011;58645;43.068;25.610;2023-08-08T06:02:36;5.63;;;3.50;;
70985;SDS011;58645;43.068;25.610;2023-08-08T06:05:06;8.80;;;5.47;;
70985;SDS011;58645;43.068;25.610;2023-08-08T06:07:32;9.88;;;5.32;;
70985;SDS011;58645;43.068;25.610;2023-08-08T06:09:58;6.25;;;3.97;;
70985;SDS011;58645;43.068;25.610;2023-08-08T06:12:24;5.35;;;3.13;;
70985;SDS011;58645;43.068;25.610;2023-08-08T06:14:50;3.35;;;2.17;;
70985;SDS011;58645;43.068;25.610;2023-08-08T06:17:15;3.60;;;2.30;;
70985;SDS011;58645;43.068;25.610;2023-08-08T06:19:41;4.88;;;2.22;;
70985;SDS011;58645;43.068;25.610;2023-08-08T06:22:07;3.88;;;2.08;;
70985;SDS011;58645;43.068;25.610;2023-08-08T06:24:32;3.85;;;2.30;;
70985;SDS011;58645;43.068;25.610;2023-08-08T06:26:58;4.07;;;2.15;;
70985;SDS011;58645;43.068;25.610;2023-08-08T06:29:24;3.53;;;2.03;;
70985;SDS011;58645;43.068;25.610;2023-08-08T06:31:49;3.45;;;1.95;;
70985;SDS011;58645;43.068;25.610;2023-08-08T06:34:15;3.80;;;2.40;;
70985;SDS011;58645;43.068;25.610;2023-08-08T06:36:41;4.88;;;2.33;;
70985;SDS011;58645;43.068;25.610;2023-08-08T06:39:07;4.53;;;2.50;;
70985;SDS011;58645;43.068;25.610;2023-08-08T06:41:33;4.95;;;2.03;;
70985;SDS011;58645;43.068;25.610;2023-08-08T06:43:58;3.92;;;2.30;;
70985;SDS011;58645;43.068;25.610;2023-08-08T06:46:24;3.33;;;2.15;;
70985;SDS011;58645;43.068;25.610;2023-08-08T06:48:50;4.13;;;2.58;;
70985;SDS011;58645;43.068;25.610;2023-08-08T06:51:21;4.25;;;2.70;;
70985;SDS011;58645;43.068;25.610;2023-08-08T06:53:47;4.60;;;2.60;;
70985;SDS011;58645;43.068;25.610;2023-08-08T06:56:12;5.35;;;2.83;;
70985;SDS011;58645;43.068;25.610;2023-08-08T06:58:38;4.88;;;2.90;;
70985;SDS011;58645;43.068;25.610;2023-08-08T07:01:04;5.40;;;2.83;;
70985;SDS011;58645;43.068;25.610;2023-08-08T07:03:29;4.25;;;2.88;;
70985;SDS011;58645;43.068;25.610;2023-08-08T07:05:55;5.00;;;3.30;;
70985;SDS011;58645;43.068;25.610;2023-08-08T07:08:21;4.65;;;2.90;;
70985;SDS011;58645;43.068;25.610;2023-08-08T07:10:47;5.78;;;3.13;;
70985;SDS011;58645;43.068;25.610;2023-08-08T07:13:12;4.18;;;2.92;;
70985;SDS011;58645;43.068;25.610;2023-08-08T07:15:40;4.75;;;2.95;;
70985;SDS011;58645;43.068;25.610;2023-08-08T07:18:06;5.95;;;3.22;;
70985;SDS011;58645;43.068;25.610;2023-08-08T07:20:32;6.80;;;3.65;;
70985;SDS011;58645;43.068;25.610;2023-08-08T07:22:58;3.78;;;2.45;;
70985;SDS011;58645;43.068;25.610;2023-08-08T07:25:25;3.65;;;2.45;;
70985;SDS011;58645;43.068;25.610;2023-08-08T07:27:51;2.85;;;2.03;;
70985;SDS011;58645;43.068;25.610;2023-08-08T07:30:17;3.83;;;2.60;;
70985;SDS011;58645;43.068;25.610;2023-08-08T07:32:42;4.57;;;2.40;;
70985;SDS011;58645;43.068;25.610;2023-08-08T07:35:08;4.72;;;3.53;;
70985;SDS011;58645;43.068;25.610;2023-08-08T07:37:35;6.05;;;3.53;;
70985;SDS011;58645;43.068;25.610;2023-08-08T07:40:01;2.97;;;2.28;;
70985;SDS011;58645;43.068;25.610;2023-08-08T07:42:27;5.97;;;2.30;;
70985;SDS011;58645;43.068;25.610;2023-08-08T07:44:53;4.60;;;2.38;;
70985;SDS011;58645;43.068;25.610;2023-08-08T07:47:19;3.80;;;2.53;;
70985;SDS011;58645;43.068;25.610;2023-08-08T07:49:44;5.05;;;3.33;;
70985;SDS011;58645;43.068;25.610;2023-08-08T07:52:10;4.55;;;2.83;;
70985;SDS011;58645;43.068;25.610;2023-08-08T07:54:36;4.45;;;2.78;;
70985;SDS011;58645;43.068;25.610;2023-08-08T07:57:01;6.45;;;3.92;;
70985;SDS011;58645;43.068;25.610;2023-08-08T07:59:27;6.03;;;2.92;;
70985;SDS011;58645;43.068;25.610;2023-08-08T08:01:53;5.32;;;3.42;;
70985;SDS011;58645;43.068;25.610;2023-08-08T08:04:19;4.22;;;2.15;;
70985;SDS011;58645;43.068;25.610;2023-08-08T08:06:44;5.43;;;2.50;;
70985;SDS011;58645;43.068;25.610;2023-08-08T08:09:10;5.70;;;2.47;;
70985;SDS011;58645;43.068;25.610;2023-08-08T08:11:36;4.78;;;2.70;;
70985;SDS011;58645;43.068;25.610;2023-08-08T08:14:01;5.32;;;2.50;;
70985;SDS011;58645;43.068;25.610;2023-08-08T08:16:27;4.68;;;2.97;;
70985;SDS011;58645;43.068;25.610;2023-08-08T08:18:53;6.45;;;2.65;;
70985;SDS011;58645;43.068;25.610;2023-08-08T08:21:19;4.10;;;2.00;;
70985;SDS011;58645;43.068;25.610;2023-08-08T08:23:45;3.40;;;2.13;;
70985;SDS011;58645;43.068;25.610;2023-08-08T08:26:11;3.15;;;2.33;;
70985;SDS011;58645;43.068;25.610;2023-08-08T08:28:37;4.38;;;2.65;;
70985;SDS011;58645;43.068;25.610;2023-08-08T08:31:05;3.67;;;2.13;;
70985;SDS011;58645;43.068;25.610;2023-08-08T08:33:31;2.20;;;1.23;;
70985;SDS011;58645;43.068;25.610;2023-08-08T08:35:57;1.95;;;1.60;;
70985;SDS011;58645;43.068;25.610;2023-08-08T08:38:23;1.27;;;0.82;;
70985;SDS011;58645;43.068;25.610;2023-08-08T08:40:48;3.35;;;1.20;;
70985;SDS011;58645;43.068;25.610;2023-08-08T08:43:16;3.05;;;1.17;;
70985;SDS011;58645;43.068;25.610;2023-08-08T08:45:43;1.25;;;0.70;;
70985;SDS011;58645;43.068;25.610;2023-08-08T08:48:16;3.53;;;0.70;;
70985;SDS011;58645;43.068;25.610;2023-08-08T08:50:44;5.53;;;0.70;;
70985;SDS011;58645;43.068;25.610;2023-08-08T08:53:12;2.20;;;0.80;;
70985;SDS011;58645;43.068;25.610;2023-08-08T08:55:40;2.72;;;1.00;;
70985;SDS011;58645;43.068;25.610;2023-08-08T08:58:06;2.75;;;0.88;;
70985;SDS011;58645;43.068;25.610;2023-08-08T09:00:33;3.83;;;1.38;;
70985;SDS011;58645;43.068;25.610;2023-08-08T09:02:59;2.38;;;0.73;;
70985;SDS011;58645;43.068;25.610;2023-08-08T09:05:26;1.42;;;0.75;;
70985;SDS011;58645;43.068;25.610;2023-08-08T09:07:52;1.50;;;0.63;;
70985;SDS011;58645;43.068;25.610;2023-08-08T09:10:18;1.60;;;0.70;;
70985;SDS011;58645;43.068;25.610;2023-08-08T09:12:45;1.63;;;0.65;;
70985;SDS011;58645;43.068;25.610;2023-08-08T09:15:11;1.83;;;0.77;;
70985;SDS011;58645;43.068;25.610;2023-08-08T09:17:41;2.60;;;0.60;;
70985;SDS011;58645;43.068;25.610;2023-08-08T09:20:08;1.40;;;0.93;;
70985;SDS011;58645;43.068;25.610;2023-08-08T09:22:36;4.57;;;1.00;;
70985;SDS011;58645;43.068;25.610;2023-08-08T09:25:02;3.05;;;0.80;;
70985;SDS011;58645;43.068;25.610;2023-08-08T09:27:29;1.48;;;0.80;;
70985;SDS011;58645;43.068;25.610;2023-08-08T09:29:55;3.50;;;0.70;;
70985;SDS011;58645;43.068;25.610;2023-08-08T09:32:20;2.75;;;0.80;;
70985;SDS011;58645;43.068;25.610;2023-08-08T09:34:46;1.58;;;0.50;;
70985;SDS011;58645;43.068;25.610;2023-08-08T09:37:33;0.45;;;0.40;;
70985;SDS011;58645;43.068;25.610;2023-08-08T09:39:58;0.70;;;0.50;;
70985;SDS011;58645;43.068;25.610;2023-08-08T09:42:28;0.88;;;0.52;;
70985;SDS011;58645;43.068;25.610;2023-08-08T09:44:57;1.05;;;0.70;;
70985;SDS011;58645;43.068;25.610;2023-08-08T09:47:24;1.10;;;0.45;;
70985;SDS011;58645;43.068;25.610;2023-08-08T09:49:50;1.35;;;0.60;;
70985;SDS011;58645;43.068;25.610;2023-08-08T09:52:16;0.93;;;0.40;;
70985;SDS011;58645;43.068;25.610;2023-08-08T09:54:44;1.20;;;0.60;;
70985;SDS011;58645;43.068;25.610;2023-08-08T09:57:11;1.63;;;0.30;;
70985;SDS011;58645;43.068;25.610;2023-08-08T09:59:38;2.03;;;0.52;;
70985;SDS011;58645;43.068;25.610;2023-08-08T10:02:05;1.73;;;0.40;;
70985;SDS011;58645;43.068;25.610;2023-08-08T10:04:33;1.50;;;0.80;;
70985;SDS011;58645;43.068;25.610;2023-08-08T10:06:59;1.30;;;0.63;;
70985;SDS011;58645;43.068;25.610;2023-08-08T10:09:25;0.82;;;0.52;;
70985;SDS011;58645;43.068;25.610;2023-08-08T10:11:51;1.45;;;0.63;;
70985;SDS011;58645;43.068;25.610;2023-08-08T10:14:20;1.58;;;0.50;;
70985;SDS011;58645;43.068;25.610;2023-08-08T10:16:56;1.50;;;0.68;;
70985;SDS011;58645;43.068;25.610;2023-08-08T10:19:23;0.88;;;0.50;;
70985;SDS011;58645;43.068;25.610;2023-08-08T10:21:54;1.65;;;0.35;;
70985;SDS011;58645;43.068;25.610;2023-08-08T10:24:23;1.83;;;0.73;;
70985;SDS011;58645;43.068;25.610;2023-08-08T10:26:58;1.08;;;0.73;;
70985;SDS011;58645;43.068;25.610;2023-08-08T10:29:27;1.38;;;0.65;;
70985;SDS011;58645;43.068;25.610;2023-08-08T10:32:04;1.08;;;0.80;;
70985;SDS011;58645;43.068;25.610;2023-08-08T10:37:04;3.35;;;0.85;;
70985;SDS011;58645;43.068;25.610;2023-08-08T10:39:31;2.33;;;0.93;;
70985;SDS011;58645;43.068;25.610;2023-08-08T10:41:59;1.98;;;0.52;;
70985;SDS011;58645;43.068;25.610;2023-08-08T10:44:29;2.22;;;0.63;;
70985;SDS011;58645;43.068;25.610;2023-08-08T10:46:55;1.20;;;0.65;;
70985;SDS011;58645;43.068;25.610;2023-08-08T10:49:21;1.23;;;0.93;;
70985;SDS011;58645;43.068;25.610;2023-08-08T10:51:47;1.85;;;0.90;;
70985;SDS011;58645;43.068;25.610;2023-08-08T10:54:18;1.33;;;0.60;;
70985;SDS011;58645;43.068;25.610;2023-08-08T10:59:17;1.33;;;0.52;;
70985;SDS011;58645;43.068;25.610;2023-08-08T11:01:45;1.25;;;0.35;;
70985;SDS011;58645;43.068;25.610;2023-08-08T11:04:13;0.70;;;0.50;;
70985;SDS011;58645;43.068;25.610;2023-08-08T11:06:42;2.63;;;0.60;;
70985;SDS011;58645;43.068;25.610;2023-08-08T11:09:10;0.63;;;0.30;;
70985;SDS011;58645;43.068;25.610;2023-08-08T11:11:37;1.25;;;0.60;;
70985;SDS011;58645;43.068;25.610;2023-08-08T11:14:10;0.50;;;0.40;;
70985;SDS011;58645;43.068;25.610;2023-08-08T11:16:40;0.50;;;0.40;;
70985;SDS011;58645;43.068;25.610;2023-08-08T11:19:07;1.17;;;0.40;;
70985;SDS011;58645;43.068;25.610;2023-08-08T11:21:37;0.35;;;0.32;;
70985;SDS011;58645;43.068;25.610;2023-08-08T11:24:05;0.88;;;0.55;;
70985;SDS011;58645;43.068;25.610;2023-08-08T11:26:36;0.90;;;0.50;;
70985;SDS011;58645;43.068;25.610;2023-08-08T11:29:03;0.98;;;0.50;;
70985;SDS011;58645;43.068;25.610;2023-08-08T11:31:30;1.35;;;0.43;;
70985;SDS011;58645;43.068;25.610;2023-08-08T11:33:57;0.40;;;0.30;;
70985;SDS011;58645;43.068;25.610;2023-08-08T11:36:25;0.82;;;0.60;;
70985;SDS011;58645;43.068;25.610;2023-08-08T11:38:54;1.42;;;0.40;;
70985;SDS011;58645;43.068;25.610;2023-08-08T11:41:22;0.65;;;0.30;;
70985;SDS011;58645;43.068;25.610;2023-08-08T11:43:49;0.40;;;0.32;;
70985;SDS011;58645;43.068;25.610;2023-08-08T11:46:16;1.90;;;0.45;;
70985;SDS011;58645;43.068;25.610;2023-08-08T11:48:42;0.80;;;0.52;;
70985;SDS011;58645;43.068;25.610;2023-08-08T11:51:13;0.60;;;0.30;;
70985;SDS011;58645;43.068;25.610;2023-08-08T11:53:50;0.75;;;0.63;;
70985;SDS011;58645;43.068;25.610;2023-08-08T11:56:19;1.52;;;0.80;;
70985;SDS011;58645;43.068;25.610;2023-08-08T11:58:46;3.38;;;0.73;;
70985;SDS011;58645;43.068;25.610;2023-08-08T12:01:16;1.48;;;0.63;;
70985;SDS011;58645;43.068;25.610;2023-08-08T12:03:45;2.20;;;0.93;;
70985;SDS011;58645;43.068;25.610;2023-08-08T12:06:12;2.00;;;0.90;;
70985;SDS011;58645;43.068;25.610;2023-08-08T12:08:42;2.67;;;0.80;;
70985;SDS011;58645;43.068;25.610;2023-08-08T12:11:09;0.73;;;0.63;;
70985;SDS011;58645;43.068;25.610;2023-08-08T12:13:40;0.93;;;0.40;;
70985;SDS011;58645;43.068;25.610;2023-08-08T12:16:11;0.80;;;0.43;;
70985;SDS011;58645;43.068;25.610;2023-08-08T12:18:38;0.70;;;0.52;;
70985;SDS011;58645;43.068;25.610;2023-08-08T12:21:05;0.52;;;0.40;;
70985;SDS011;58645;43.068;25.610;2023-08-08T12:23:32;0.85;;;0.45;;
70985;SDS011;58645;43.068;25.610;2023-08-08T12:26:00;1.02;;;0.50;;
70985;SDS011;58645;43.068;25.610;2023-08-08T12:28:28;0.50;;;0.32;;
70985;SDS011;58645;43.068;25.610;2023-08-08T12:30:54;0.70;;;0.47;;
70985;SDS011;58645;43.068;25.610;2023-08-08T12:33:20;1.85;;;0.50;;
70985;SDS011;58645;43.068;25.610;2023-08-08T12:35:46;0.57;;;0.45;;
70985;SDS011;58645;43.068;25.610;2023-08-08T12:38:12;1.02;;;0.52;;
70985;SDS011;58645;43.068;25.610;2023-08-08T12:40:39;0.75;;;0.30;;
70985;SDS011;58645;43.068;25.610;2023-08-08T12:43:05;1.73;;;0.43;;
70985;SDS011;58645;43.068;25.610;2023-08-08T12:45:31;0.40;;;0.30;;
70985;SDS011;58645;43.068;25.610;2023-08-08T12:47:56;0.82;;;0.63;;
70985;SDS011;58645;43.068;25.610;2023-08-08T12:50:22;0.70;;;0.40;;
70985;SDS011;58645;43.068;25.610;2023-08-08T12:52:48;0.30;;;0.30;;
70985;SDS011;58645;43.068;25.610;2023-08-08T12:55:14;1.30;;;0.35;;
70985;SDS011;58645;43.068;25.610;2023-08-08T12:57:42;1.38;;;0.45;;
70985;SDS011;58645;43.068;25.610;2023-08-08T13:00:09;0.98;;;0.38;;
70985;SDS011;58645;43.068;25.610;2023-08-08T13:02:37;1.20;;;0.22;;
70985;SDS011;58645;43.068;25.610;2023-08-08T13:05:04;1.27;;;0.28;;
70985;SDS011;58645;43.068;25.610;2023-08-08T13:07:32;0.90;;;0.60;;
70985;SDS011;58645;43.068;25.610;2023-08-08T13:09:57;0.45;;;0.43;;
70985;SDS011;58645;43.068;25.610;2023-08-08T13:12:23;0.52;;;0.35;;
70985;SDS011;58645;43.068;25.610;2023-08-08T13:14:49;0.63;;;0.32;;
70985;SDS011;58645;43.068;25.610;2023-08-08T13:17:15;1.17;;;0.40;;
70985;SDS011;58645;43.068;25.610;2023-08-08T13:19:41;0.50;;;0.40;;
70985;SDS011;58645;43.068;25.610;2023-08-08T13:22:06;1.70;;;0.45;;
70985;SDS011;58645;43.068;25.610;2023-08-08T13:24:32;0.65;;;0.32;;
70985;SDS011;58645;43.068;25.610;2023-08-08T13:26:58;1.38;;;0.32;;
70985;SDS011;58645;43.068;25.610;2023-08-08T13:29:24;0.30;;;0.30;;
70985;SDS011;58645;43.068;25.610;2023-08-08T13:31:49;1.00;;;0.50;;
70985;SDS011;58645;43.068;25.610;2023-08-08T13:34:15;2.08;;;0.43;;
70985;SDS011;58645;43.068;25.610;2023-08-08T13:36:41;0.50;;;0.35;;
70985;SDS011;58645;43.068;25.610;2023-08-08T13:39:07;1.02;;;0.50;;
70985;SDS011;58645;43.068;25.610;2023-08-08T13:41:34;1.00;;;0.45;;
70985;SDS011;58645;43.068;25.610;2023-08-08T13:44:00;1.58;;;0.40;;
70985;SDS011;58645;43.068;25.610;2023-08-08T13:46:26;1.95;;;0.40;;
70985;SDS011;58645;43.068;25.610;2023-08-08T13:48:51;1.15;;;0.55;;
70985;SDS011;58645;43.068;25.610;2023-08-08T13:51:17;0.40;;;0.30;;
70985;SDS011;58645;43.068;25.610;2023-08-08T13:53:43;0.90;;;0.43;;
70985;SDS011;58645;43.068;25.610;2023-08-08T13:56:10;0.82;;;0.32;;
70985;SDS011;58645;43.068;25.610;2023-08-08T13:58:36;0.80;;;0.30;;
70985;SDS011;58645;43.068;25.610;2023-08-08T14:01:02;2.25;;;0.73;;
70985;SDS011;58645;43.068;25.610;2023-08-08T14:03:27;4.03;;;0.80;;
70985;SDS011;58645;43.068;25.610;2023-08-08T14:05:53;1.88;;;0.40;;
70985;SDS011;58645;43.068;25.610;2023-08-08T14:08:19;1.17;;;0.22;;
70985;SDS011;58645;43.068;25.610;2023-08-08T14:10:45;0.90;;;0.43;;
70985;SDS011;58645;43.068;25.610;2023-08-08T14:13:11;0.82;;;0.45;;
70985;SDS011;58645;43.068;25.610;2023-08-08T14:15:37;0.70;;;0.30;;
70985;SDS011;58645;43.068;25.610;2023-08-08T14:18:03;3.40;;;0.50;;
70985;SDS011;58645;43.068;25.610;2023-08-08T14:20:29;0.88;;;0.40;;
70985;SDS011;58645;43.068;25.610;2023-08-08T14:22:55;0.70;;;0.38;;
70985;SDS011;58645;43.068;25.610;2023-08-08T14:25:21;2.65;;;0.40;;
70985;SDS011;58645;43.068;25.610;2023-08-08T14:27:47;2.35;;;0.43;;
70985;SDS011;58645;43.068;25.610;2023-08-08T14:30:13;0.50;;;0.38;;
70985;SDS011;58645;43.068;25.610;2023-08-08T14:32:39;1.17;;;0.40;;
70985;SDS011;58645;43.068;25.610;2023-08-08T14:35:05;0.52;;;0.40;;
70985;SDS011;58645;43.068;25.610;2023-08-08T14:37:33;1.45;;;0.32;;
70985;SDS011;58645;43.068;25.610;2023-08-08T14:40:02;1.45;;;0.25;;
70985;SDS011;58645;43.068;25.610;2023-08-08T14:42:28;0.70;;;0.40;;